sensor_id;sensor_type;location;lat;lon;timestamp;P1;durP1;ratioP1;P2;durP2;ratioP2
68379;SDS011;57711;53.196;19.638;2022-11-20T00:01:05;65.80;;;34.00;;
68379;SDS011;57711;53.196;19.638;2022-11-20T00:03:33;70.20;;;34.40;;
68379;SDS011;57711;53.196;19.638;2022-11-20T00:06:04;73.60;;;34.50;;
68379;SDS011;57711;53.196;19.638;2022-11-20T00:08:33;136.70;;;45.80;;
68379;SDS011;57711;53.196;19.638;2022-11-20T00:11:08;93.20;;;40.00;;
68379;SDS011;57711;53.196;19.638;2022-11-20T00:13:45;98.40;;;37.10;;
68379;SDS011;57711;53.196;19.638;2022-11-20T00:16:14;77.90;;;36.40;;
68379;SDS011;57711;53.196;19.638;2022-11-20T00:18:43;74.90;;;34.50;;
68379;SDS011;57711;53.196;19.638;2022-11-20T00:21:12;74.70;;;34.80;;
68379;SDS011;57711;53.196;19.638;2022-11-20T00:23:41;68.10;;;34.00;;
68379;SDS011;57711;53.196;19.638;2022-11-20T00:26:10;64.40;;;32.70;;
68379;SDS011;57711;53.196;19.638;2022-11-20T00:28:38;59.40;;;32.70;;
68379;SDS011;57711;53.196;19.638;2022-11-20T00:31:07;69.70;;;33.40;;
68379;SDS011;57711;53.196;19.638;2022-11-20T00:33:36;53.50;;;30.80;;
68379;SDS011;57711;53.196;19.638;2022-11-20T00:36:05;48.90;;;26.70;;
68379;SDS011;57711;53.196;19.638;2022-11-20T00:38:33;53.90;;;27.70;;
68379;SDS011;57711;53.196;19.638;2022-11-20T00:41:03;48.60;;;26.80;;
68379;SDS011;57711;53.196;19.638;2022-11-20T00:43:31;54.50;;;29.00;;
68379;SDS011;57711;53.196;19.638;2022-11-20T00:46:03;45.40;;;26.50;;
68379;SDS011;57711;53.196;19.638;2022-11-20T00:48:32;42.50;;;26.00;;
68379;SDS011;57711;53.196;19.638;2022-11-20T00:50:59;45.50;;;25.40;;
68379;SDS011;57711;53.196;19.638;2022-11-20T00:53:27;49.10;;;25.60;;
68379;SDS011;57711;53.196;19.638;2022-11-20T00:56:01;70.90;;;38.00;;
68379;SDS011;57711;53.196;19.638;2022-11-20T00:58:32;52.00;;;27.30;;
68379;SDS011;57711;53.196;19.638;2022-11-20T01:01:03;39.30;;;25.40;;
68379;SDS011;57711;53.196;19.638;2022-11-20T01:03:33;39.90;;;24.30;;
68379;SDS011;57711;53.196;19.638;2022-11-20T01:06:09;43.80;;;26.10;;
68379;SDS011;57711;53.196;19.638;2022-11-20T01:08:38;37.70;;;25.20;;
68379;SDS011;57711;53.196;19.638;2022-11-20T01:11:07;36.80;;;24.80;;
68379;SDS011;57711;53.196;19.638;2022-11-20T01:13:36;33.70;;;22.80;;
68379;SDS011;57711;53.196;19.638;2022-11-20T01:18:31;38.00;;;24.20;;
68379;SDS011;57711;53.196;19.638;2022-11-20T01:21:02;30.70;;;21.20;;
68379;SDS011;57711;53.196;19.638;2022-11-20T01:23:31;41.00;;;23.70;;
68379;SDS011;57711;53.196;19.638;2022-11-20T01:26:02;34.10;;;23.40;;
68379;SDS011;57711;53.196;19.638;2022-11-20T01:28:31;34.70;;;22.00;;
68379;SDS011;57711;53.196;19.638;2022-11-20T01:30:59;39.80;;;23.60;;
68379;SDS011;57711;53.196;19.638;2022-11-20T01:33:27;37.10;;;23.60;;
68379;SDS011;57711;53.196;19.638;2022-11-20T01:36:02;35.90;;;23.20;;
68379;SDS011;57711;53.196;19.638;2022-11-20T01:38:31;42.20;;;26.10;;
68379;SDS011;57711;53.196;19.638;2022-11-20T01:40:58;44.00;;;26.20;;
68379;SDS011;57711;53.196;19.638;2022-11-20T01:43:25;39.80;;;25.40;;
68379;SDS011;57711;53.196;19.638;2022-11-20T01:46:08;38.20;;;25.30;;
68379;SDS011;57711;53.196;19.638;2022-11-20T01:49:34;37.90;;;24.20;;
68379;SDS011;57711;53.196;19.638;2022-11-20T01:51:48;37.60;;;24.40;;
68379;SDS011;57711;53.196;19.638;2022-11-20T01:54:19;35.20;;;22.60;;
68379;SDS011;57711;53.196;19.638;2022-11-20T01:56:53;29.20;;;21.30;;
68379;SDS011;57711;53.196;19.638;2022-11-20T01:59:26;34.50;;;22.70;;
68379;SDS011;57711;53.196;19.638;2022-11-20T02:01:55;38.80;;;23.80;;
68379;SDS011;57711;53.196;19.638;2022-11-20T02:04:23;44.10;;;24.30;;
68379;SDS011;57711;53.196;19.638;2022-11-20T02:06:53;35.90;;;23.70;;
68379;SDS011;57711;53.196;19.638;2022-11-20T02:09:26;37.90;;;24.10;;
68379;SDS011;57711;53.196;19.638;2022-11-20T02:11:54;43.10;;;26.60;;
68379;SDS011;57711;53.196;19.638;2022-11-20T02:14:22;42.10;;;25.30;;
68379;SDS011;57711;53.196;19.638;2022-11-20T02:16:50;383.10;;;106.20;;
68379;SDS011;57711;53.196;19.638;2022-11-20T02:19:22;841.70;;;271.90;;
68379;SDS011;57711;53.196;19.638;2022-11-20T02:21:59;906.70;;;262.80;;
68379;SDS011;57711;53.196;19.638;2022-11-20T02:24:29;368.60;;;91.90;;
68379;SDS011;57711;53.196;19.638;2022-11-20T02:26:58;116.70;;;35.20;;
68379;SDS011;57711;53.196;19.638;2022-11-20T02:29:32;77.30;;;35.80;;
68379;SDS011;57711;53.196;19.638;2022-11-20T02:32:04;53.20;;;30.30;;
68379;SDS011;57711;53.196;19.638;2022-11-20T02:34:31;50.90;;;27.90;;
68379;SDS011;57711;53.196;19.638;2022-11-20T02:36:58;45.00;;;28.10;;
68379;SDS011;57711;53.196;19.638;2022-11-20T02:39:26;50.40;;;29.40;;
68379;SDS011;57711;53.196;19.638;2022-11-20T02:41:55;45.10;;;29.40;;
68379;SDS011;57711;53.196;19.638;2022-11-20T02:44:23;46.30;;;29.20;;
68379;SDS011;57711;53.196;19.638;2022-11-20T02:46:50;50.90;;;32.20;;
68379;SDS011;57711;53.196;19.638;2022-11-20T02:49:17;42.70;;;28.10;;
68379;SDS011;57711;53.196;19.638;2022-11-20T02:51:45;49.30;;;34.40;;
68379;SDS011;57711;53.196;19.638;2022-11-20T02:54:12;43.60;;;28.30;;
68379;SDS011;57711;53.196;19.638;2022-11-20T02:56:39;82.00;;;54.10;;
68379;SDS011;57711;53.196;19.638;2022-11-20T02:59:07;54.90;;;34.90;;
68379;SDS011;57711;53.196;19.638;2022-11-20T03:01:34;38.20;;;25.60;;
68379;SDS011;57711;53.196;19.638;2022-11-20T03:04:01;50.70;;;31.20;;
68379;SDS011;57711;53.196;19.638;2022-11-20T03:06:29;100.20;;;68.90;;
68379;SDS011;57711;53.196;19.638;2022-11-20T03:08:56;56.30;;;37.10;;
68379;SDS011;57711;53.196;19.638;2022-11-20T03:11:23;73.70;;;41.30;;
68379;SDS011;57711;53.196;19.638;2022-11-20T03:13:51;94.60;;;38.50;;
68379;SDS011;57711;53.196;19.638;2022-11-20T03:16:19;102.30;;;35.20;;
68379;SDS011;57711;53.196;19.638;2022-11-20T03:18:48;78.60;;;34.10;;
68379;SDS011;57711;53.196;19.638;2022-11-20T03:21:16;61.70;;;32.00;;
68379;SDS011;57711;53.196;19.638;2022-11-20T03:23:43;68.10;;;33.80;;
68379;SDS011;57711;53.196;19.638;2022-11-20T03:26:14;56.60;;;32.70;;
68379;SDS011;57711;53.196;19.638;2022-11-20T03:28:42;64.80;;;33.00;;
68379;SDS011;57711;53.196;19.638;2022-11-20T03:31:15;56.80;;;32.90;;
68379;SDS011;57711;53.196;19.638;2022-11-20T03:33:43;51.40;;;29.40;;
68379;SDS011;57711;53.196;19.638;2022-11-20T03:36:11;59.70;;;32.80;;
68379;SDS011;57711;53.196;19.638;2022-11-20T03:38:40;56.80;;;33.10;;
68379;SDS011;57711;53.196;19.638;2022-11-20T03:41:14;62.40;;;36.50;;
68379;SDS011;57711;53.196;19.638;2022-11-20T03:43:48;49.10;;;30.50;;
68379;SDS011;57711;53.196;19.638;2022-11-20T03:46:17;48.50;;;31.30;;
68379;SDS011;57711;53.196;19.638;2022-11-20T03:48:44;53.70;;;34.00;;
68379;SDS011;57711;53.196;19.638;2022-11-20T03:51:21;53.30;;;31.80;;
68379;SDS011;57711;53.196;19.638;2022-11-20T03:53:56;51.00;;;32.20;;
68379;SDS011;57711;53.196;19.638;2022-11-20T03:56:25;53.20;;;32.00;;
68379;SDS011;57711;53.196;19.638;2022-11-20T03:58:55;50.90;;;31.50;;
68379;SDS011;57711;53.196;19.638;2022-11-20T04:01:23;42.60;;;27.40;;
68379;SDS011;57711;53.196;19.638;2022-11-20T04:03:53;46.20;;;29.50;;
68379;SDS011;57711;53.196;19.638;2022-11-20T04:06:22;45.90;;;29.30;;
68379;SDS011;57711;53.196;19.638;2022-11-20T04:08:51;54.90;;;33.70;;
68379;SDS011;57711;53.196;19.638;2022-11-20T04:11:23;49.60;;;30.60;;
68379;SDS011;57711;53.196;19.638;2022-11-20T04:13:53;53.40;;;32.30;;
68379;SDS011;57711;53.196;19.638;2022-11-20T04:16:22;50.90;;;31.50;;
68379;SDS011;57711;53.196;19.638;2022-11-20T04:18:54;58.70;;;32.90;;
68379;SDS011;57711;53.196;19.638;2022-11-20T04:21:24;55.60;;;31.60;;
68379;SDS011;57711;53.196;19.638;2022-11-20T04:23:52;55.70;;;33.50;;
68379;SDS011;57711;53.196;19.638;2022-11-20T04:26:20;53.10;;;31.30;;
68379;SDS011;57711;53.196;19.638;2022-11-20T04:28:49;47.70;;;30.50;;
68379;SDS011;57711;53.196;19.638;2022-11-20T04:31:18;46.70;;;29.90;;
68379;SDS011;57711;53.196;19.638;2022-11-20T04:33:47;42.40;;;28.20;;
68379;SDS011;57711;53.196;19.638;2022-11-20T04:36:15;46.70;;;30.70;;
68379;SDS011;57711;53.196;19.638;2022-11-20T04:38:44;48.60;;;30.60;;
68379;SDS011;57711;53.196;19.638;2022-11-20T04:41:16;48.00;;;30.10;;
68379;SDS011;57711;53.196;19.638;2022-11-20T04:43:48;55.40;;;30.20;;
68379;SDS011;57711;53.196;19.638;2022-11-20T04:46:17;55.90;;;32.20;;
68379;SDS011;57711;53.196;19.638;2022-11-20T04:48:46;65.00;;;31.90;;
68379;SDS011;57711;53.196;19.638;2022-11-20T04:51:14;53.30;;;33.40;;
68379;SDS011;57711;53.196;19.638;2022-11-20T04:53:41;52.80;;;30.90;;
68379;SDS011;57711;53.196;19.638;2022-11-20T04:56:08;50.70;;;32.20;;
68379;SDS011;57711;53.196;19.638;2022-11-20T04:58:37;45.00;;;29.10;;
68379;SDS011;57711;53.196;19.638;2022-11-20T05:03:33;47.00;;;30.60;;
68379;SDS011;57711;53.196;19.638;2022-11-20T05:06:07;44.90;;;30.20;;
68379;SDS011;57711;53.196;19.638;2022-11-20T05:08:35;54.50;;;32.70;;
68379;SDS011;57711;53.196;19.638;2022-11-20T05:11:03;53.30;;;31.20;;
68379;SDS011;57711;53.196;19.638;2022-11-20T05:13:31;52.30;;;30.10;;
68379;SDS011;57711;53.196;19.638;2022-11-20T05:16:02;78.50;;;33.10;;
68379;SDS011;57711;53.196;19.638;2022-11-20T05:18:30;56.00;;;34.10;;
68379;SDS011;57711;53.196;19.638;2022-11-20T05:20:58;61.90;;;37.20;;
68379;SDS011;57711;53.196;19.638;2022-11-20T05:23:25;54.70;;;32.40;;
68379;SDS011;57711;53.196;19.638;2022-11-20T05:25:56;53.60;;;33.60;;
68379;SDS011;57711;53.196;19.638;2022-11-20T05:28:26;70.90;;;42.30;;
68379;SDS011;57711;53.196;19.638;2022-11-20T05:30:54;69.00;;;38.70;;
68379;SDS011;57711;53.196;19.638;2022-11-20T05:33:21;56.70;;;35.60;;
68379;SDS011;57711;53.196;19.638;2022-11-20T05:35:49;54.20;;;31.50;;
68379;SDS011;57711;53.196;19.638;2022-11-20T05:38:16;48.70;;;31.50;;
68379;SDS011;57711;53.196;19.638;2022-11-20T05:40:43;51.10;;;32.20;;
68379;SDS011;57711;53.196;19.638;2022-11-20T05:43:10;55.20;;;31.10;;
68379;SDS011;57711;53.196;19.638;2022-11-20T05:45:37;84.10;;;40.60;;
68379;SDS011;57711;53.196;19.638;2022-11-20T05:48:04;143.60;;;79.30;;
68379;SDS011;57711;53.196;19.638;2022-11-20T05:50:31;100.90;;;58.20;;
68379;SDS011;57711;53.196;19.638;2022-11-20T05:52:59;197.70;;;107.70;;
68379;SDS011;57711;53.196;19.638;2022-11-20T05:55:26;116.70;;;52.80;;
68379;SDS011;57711;53.196;19.638;2022-11-20T05:57:54;99.20;;;40.20;;
68379;SDS011;57711;53.196;19.638;2022-11-20T06:00:22;79.10;;;36.80;;
68379;SDS011;57711;53.196;19.638;2022-11-20T06:02:49;133.70;;;62.60;;
68379;SDS011;57711;53.196;19.638;2022-11-20T06:05:16;140.60;;;77.50;;
68379;SDS011;57711;53.196;19.638;2022-11-20T06:07:43;122.60;;;51.50;;
68379;SDS011;57711;53.196;19.638;2022-11-20T06:10:10;86.10;;;40.90;;
68379;SDS011;57711;53.196;19.638;2022-11-20T06:12:37;85.30;;;38.80;;
68379;SDS011;57711;53.196;19.638;2022-11-20T06:15:05;49.30;;;29.90;;
68379;SDS011;57711;53.196;19.638;2022-11-20T06:17:32;68.00;;;35.30;;
68379;SDS011;57711;53.196;19.638;2022-11-20T06:20:00;65.10;;;36.00;;
68379;SDS011;57711;53.196;19.638;2022-11-20T06:22:27;94.60;;;47.20;;
68379;SDS011;57711;53.196;19.638;2022-11-20T06:24:54;79.90;;;46.00;;
68379;SDS011;57711;53.196;19.638;2022-11-20T06:27:21;90.30;;;42.50;;
68379;SDS011;57711;53.196;19.638;2022-11-20T06:29:48;67.10;;;35.90;;
68379;SDS011;57711;53.196;19.638;2022-11-20T06:32:15;66.70;;;33.60;;
68379;SDS011;57711;53.196;19.638;2022-11-20T06:34:42;60.50;;;35.70;;
68379;SDS011;57711;53.196;19.638;2022-11-20T06:37:10;55.10;;;32.40;;
68379;SDS011;57711;53.196;19.638;2022-11-20T06:39:37;58.00;;;31.40;;
68379;SDS011;57711;53.196;19.638;2022-11-20T06:42:04;54.40;;;30.00;;
68379;SDS011;57711;53.196;19.638;2022-11-20T06:44:31;47.60;;;29.60;;
68379;SDS011;57711;53.196;19.638;2022-11-20T06:46:58;45.30;;;29.60;;
68379;SDS011;57711;53.196;19.638;2022-11-20T06:49:25;55.50;;;31.30;;
68379;SDS011;57711;53.196;19.638;2022-11-20T06:51:52;51.30;;;32.30;;
68379;SDS011;57711;53.196;19.638;2022-11-20T06:54:19;49.90;;;32.70;;
68379;SDS011;57711;53.196;19.638;2022-11-20T06:56:47;56.00;;;31.40;;
68379;SDS011;57711;53.196;19.638;2022-11-20T06:59:14;54.70;;;33.60;;
68379;SDS011;57711;53.196;19.638;2022-11-20T07:01:41;61.50;;;37.80;;
68379;SDS011;57711;53.196;19.638;2022-11-20T07:04:08;61.10;;;34.20;;
68379;SDS011;57711;53.196;19.638;2022-11-20T07:06:35;65.00;;;34.50;;
68379;SDS011;57711;53.196;19.638;2022-11-20T07:09:03;59.80;;;34.90;;
68379;SDS011;57711;53.196;19.638;2022-11-20T07:11:37;60.80;;;35.30;;
68379;SDS011;57711;53.196;19.638;2022-11-20T07:14:04;50.70;;;31.20;;
68379;SDS011;57711;53.196;19.638;2022-11-20T07:16:31;42.60;;;28.20;;
68379;SDS011;57711;53.196;19.638;2022-11-20T07:18:58;62.20;;;35.90;;
68379;SDS011;57711;53.196;19.638;2022-11-20T07:21:25;61.90;;;36.10;;
68379;SDS011;57711;53.196;19.638;2022-11-20T07:23:52;55.30;;;32.50;;
68379;SDS011;57711;53.196;19.638;2022-11-20T07:26:19;111.40;;;57.20;;
68379;SDS011;57711;53.196;19.638;2022-11-20T07:28:46;86.10;;;44.10;;
68379;SDS011;57711;53.196;19.638;2022-11-20T07:31:13;95.10;;;47.20;;
68379;SDS011;57711;53.196;19.638;2022-11-20T07:33:45;103.30;;;55.50;;
68379;SDS011;57711;53.196;19.638;2022-11-20T07:36:12;94.40;;;50.70;;
68379;SDS011;57711;53.196;19.638;2022-11-20T07:38:39;86.20;;;44.30;;
68379;SDS011;57711;53.196;19.638;2022-11-20T07:41:06;81.20;;;45.30;;
68379;SDS011;57711;53.196;19.638;2022-11-20T07:43:34;166.70;;;87.70;;
68379;SDS011;57711;53.196;19.638;2022-11-20T07:46:06;154.30;;;72.90;;
68379;SDS011;57711;53.196;19.638;2022-11-20T07:48:33;178.50;;;88.60;;
68379;SDS011;57711;53.196;19.638;2022-11-20T07:51:00;189.50;;;93.80;;
68379;SDS011;57711;53.196;19.638;2022-11-20T07:53:28;197.60;;;100.70;;
68379;SDS011;57711;53.196;19.638;2022-11-20T07:55:55;161.00;;;92.80;;
68379;SDS011;57711;53.196;19.638;2022-11-20T07:58:26;84.60;;;45.70;;
68379;SDS011;57711;53.196;19.638;2022-11-20T08:00:56;87.00;;;46.20;;
68379;SDS011;57711;53.196;19.638;2022-11-20T08:03:23;73.70;;;37.60;;
68379;SDS011;57711;53.196;19.638;2022-11-20T08:05:51;95.00;;;45.20;;
68379;SDS011;57711;53.196;19.638;2022-11-20T08:08:19;67.60;;;37.50;;
68379;SDS011;57711;53.196;19.638;2022-11-20T08:10:47;106.00;;;52.10;;
68379;SDS011;57711;53.196;19.638;2022-11-20T08:13:14;69.60;;;42.10;;
68379;SDS011;57711;53.196;19.638;2022-11-20T08:15:59;86.60;;;50.50;;
68379;SDS011;57711;53.196;19.638;2022-11-20T08:18:27;84.90;;;43.10;;
68379;SDS011;57711;53.196;19.638;2022-11-20T08:21:01;71.70;;;38.00;;
68379;SDS011;57711;53.196;19.638;2022-11-20T08:23:29;98.80;;;51.40;;
68379;SDS011;57711;53.196;19.638;2022-11-20T08:25:56;121.40;;;53.80;;
68379;SDS011;57711;53.196;19.638;2022-11-20T08:28:24;97.90;;;44.50;;
68379;SDS011;57711;53.196;19.638;2022-11-20T08:30:51;102.70;;;52.10;;
68379;SDS011;57711;53.196;19.638;2022-11-20T08:33:18;98.20;;;51.40;;
68379;SDS011;57711;53.196;19.638;2022-11-20T08:35:45;114.20;;;55.40;;
68379;SDS011;57711;53.196;19.638;2022-11-20T08:38:12;119.80;;;55.50;;
68379;SDS011;57711;53.196;19.638;2022-11-20T08:40:39;88.40;;;43.90;;
68379;SDS011;57711;53.196;19.638;2022-11-20T08:43:06;75.50;;;40.80;;
68379;SDS011;57711;53.196;19.638;2022-11-20T08:45:33;148.20;;;97.80;;
68379;SDS011;57711;53.196;19.638;2022-11-20T08:48:04;102.60;;;52.30;;
68379;SDS011;57711;53.196;19.638;2022-11-20T08:50:31;109.70;;;50.30;;
68379;SDS011;57711;53.196;19.638;2022-11-20T08:53:06;103.60;;;50.10;;
68379;SDS011;57711;53.196;19.638;2022-11-20T08:55:33;116.50;;;53.30;;
68379;SDS011;57711;53.196;19.638;2022-11-20T08:58:05;118.10;;;52.30;;
68379;SDS011;57711;53.196;19.638;2022-11-20T09:00:33;123.70;;;51.20;;
68379;SDS011;57711;53.196;19.638;2022-11-20T09:03:01;111.80;;;50.70;;
68379;SDS011;57711;53.196;19.638;2022-11-20T09:05:28;100.50;;;52.30;;
68379;SDS011;57711;53.196;19.638;2022-11-20T09:07:56;139.40;;;66.50;;
68379;SDS011;57711;53.196;19.638;2022-11-20T09:10:24;118.60;;;55.40;;
68379;SDS011;57711;53.196;19.638;2022-11-20T09:12:52;175.50;;;90.00;;
68379;SDS011;57711;53.196;19.638;2022-11-20T09:15:19;109.50;;;57.10;;
68379;SDS011;57711;53.196;19.638;2022-11-20T09:17:53;130.30;;;61.40;;
68379;SDS011;57711;53.196;19.638;2022-11-20T09:20:25;134.10;;;61.10;;
68379;SDS011;57711;53.196;19.638;2022-11-20T09:22:56;152.30;;;70.70;;
68379;SDS011;57711;53.196;19.638;2022-11-20T09:25:23;117.80;;;54.60;;
68379;SDS011;57711;53.196;19.638;2022-11-20T09:27:54;252.30;;;133.50;;
68379;SDS011;57711;53.196;19.638;2022-11-20T09:30:25;187.00;;;100.00;;
68379;SDS011;57711;53.196;19.638;2022-11-20T09:32:52;267.10;;;131.10;;
68379;SDS011;57711;53.196;19.638;2022-11-20T09:35:20;168.10;;;75.70;;
68379;SDS011;57711;53.196;19.638;2022-11-20T09:37:47;110.50;;;59.40;;
68379;SDS011;57711;53.196;19.638;2022-11-20T09:40:19;98.50;;;49.20;;
68379;SDS011;57711;53.196;19.638;2022-11-20T09:45:56;111.80;;;53.60;;
68379;SDS011;57711;53.196;19.638;2022-11-20T09:48:54;106.80;;;56.40;;
68379;SDS011;57711;53.196;19.638;2022-11-20T09:54:20;79.00;;;42.80;;
68379;SDS011;57711;53.196;19.638;2022-11-20T09:56:50;91.50;;;45.80;;
68379;SDS011;57711;53.196;19.638;2022-11-20T09:59:39;103.10;;;47.10;;
68379;SDS011;57711;53.196;19.638;2022-11-20T10:07:36;145.00;;;77.90;;
68379;SDS011;57711;53.196;19.638;2022-11-20T10:10:16;97.80;;;59.80;;
68379;SDS011;57711;53.196;19.638;2022-11-20T10:21:07;73.80;;;35.70;;
68379;SDS011;57711;53.196;19.638;2022-11-20T10:29:02;94.30;;;45.80;;
68379;SDS011;57711;53.196;19.638;2022-11-20T10:31:37;91.60;;;45.10;;
68379;SDS011;57711;53.196;19.638;2022-11-20T10:34:12;112.90;;;53.20;;
68379;SDS011;57711;53.196;19.638;2022-11-20T10:37:11;67.20;;;39.40;;
68379;SDS011;57711;53.196;19.638;2022-11-20T10:42:30;80.70;;;45.80;;
68379;SDS011;57711;53.196;19.638;2022-11-20T10:50:40;70.60;;;40.10;;
68379;SDS011;57711;53.196;19.638;2022-11-20T10:53:28;90.60;;;48.50;;
68379;SDS011;57711;53.196;19.638;2022-11-20T10:56:09;101.20;;;51.00;;
68379;SDS011;57711;53.196;19.638;2022-11-20T11:01:16;124.40;;;64.40;;
68379;SDS011;57711;53.196;19.638;2022-11-20T11:03:45;104.10;;;51.40;;
68379;SDS011;57711;53.196;19.638;2022-11-20T11:06:15;136.70;;;70.90;;
68379;SDS011;57711;53.196;19.638;2022-11-20T11:08:53;118.00;;;65.80;;
68379;SDS011;57711;53.196;19.638;2022-11-20T11:11:27;90.80;;;47.10;;
68379;SDS011;57711;53.196;19.638;2022-11-20T11:16:33;69.70;;;39.40;;
68379;SDS011;57711;53.196;19.638;2022-11-20T11:19:11;104.20;;;53.40;;
68379;SDS011;57711;53.196;19.638;2022-11-20T11:21:45;120.70;;;63.20;;
68379;SDS011;57711;53.196;19.638;2022-11-20T11:24:23;112.50;;;52.00;;
68379;SDS011;57711;53.196;19.638;2022-11-20T11:27:12;102.60;;;48.10;;
68379;SDS011;57711;53.196;19.638;2022-11-20T11:29:45;81.20;;;45.20;;
68379;SDS011;57711;53.196;19.638;2022-11-20T11:32:19;67.70;;;38.20;;
68379;SDS011;57711;53.196;19.638;2022-11-20T11:35:01;56.40;;;35.20;;
68379;SDS011;57711;53.196;19.638;2022-11-20T11:37:35;64.60;;;38.30;;
68379;SDS011;57711;53.196;19.638;2022-11-20T11:40:04;108.70;;;56.90;;
68379;SDS011;57711;53.196;19.638;2022-11-20T11:42:54;80.10;;;47.80;;
68379;SDS011;57711;53.196;19.638;2022-11-20T11:45:25;79.20;;;41.70;;
68379;SDS011;57711;53.196;19.638;2022-11-20T11:47:53;74.70;;;41.20;;
68379;SDS011;57711;53.196;19.638;2022-11-20T11:50:24;64.90;;;37.40;;
68379;SDS011;57711;53.196;19.638;2022-11-20T11:55:44;68.60;;;36.20;;
68379;SDS011;57711;53.196;19.638;2022-11-20T11:59:04;69.20;;;38.40;;
68379;SDS011;57711;53.196;19.638;2022-11-20T12:04:14;57.10;;;35.50;;
68379;SDS011;57711;53.196;19.638;2022-11-20T12:06:50;91.90;;;51.00;;
68379;SDS011;57711;53.196;19.638;2022-11-20T12:09:23;115.00;;;51.90;;
68379;SDS011;57711;53.196;19.638;2022-11-20T12:12:05;83.80;;;41.80;;
68379;SDS011;57711;53.196;19.638;2022-11-20T12:14:38;79.50;;;40.90;;
68379;SDS011;57711;53.196;19.638;2022-11-20T12:17:10;102.10;;;47.70;;
68379;SDS011;57711;53.196;19.638;2022-11-20T12:19:39;93.10;;;45.90;;
68379;SDS011;57711;53.196;19.638;2022-11-20T12:22:21;78.80;;;40.60;;
68379;SDS011;57711;53.196;19.638;2022-11-20T12:25:25;80.70;;;43.20;;
68379;SDS011;57711;53.196;19.638;2022-11-20T12:33:48;86.10;;;44.50;;
68379;SDS011;57711;53.196;19.638;2022-11-20T12:47:42;111.20;;;54.30;;
68379;SDS011;57711;53.196;19.638;2022-11-20T12:50:15;127.50;;;63.20;;
68379;SDS011;57711;53.196;19.638;2022-11-20T12:59:29;449.30;;;245.10;;
68379;SDS011;57711;53.196;19.638;2022-11-20T13:05:27;104.10;;;52.20;;
68379;SDS011;57711;53.196;19.638;2022-11-20T13:08:03;102.50;;;53.50;;
68379;SDS011;57711;53.196;19.638;2022-11-20T13:15:55;131.70;;;56.00;;
68379;SDS011;57711;53.196;19.638;2022-11-20T13:18:28;122.40;;;56.00;;
68379;SDS011;57711;53.196;19.638;2022-11-20T13:21:00;130.40;;;57.30;;
68379;SDS011;57711;53.196;19.638;2022-11-20T13:23:28;113.90;;;52.50;;
68379;SDS011;57711;53.196;19.638;2022-11-20T13:28:47;105.30;;;48.10;;
68379;SDS011;57711;53.196;19.638;2022-11-20T13:34:02;106.50;;;53.60;;
68379;SDS011;57711;53.196;19.638;2022-11-20T13:36:32;87.40;;;43.90;;
68379;SDS011;57711;53.196;19.638;2022-11-20T13:39:01;74.60;;;37.60;;
68379;SDS011;57711;53.196;19.638;2022-11-20T13:41:36;114.40;;;57.50;;
68379;SDS011;57711;53.196;19.638;2022-11-20T13:46:51;95.30;;;45.70;;
68379;SDS011;57711;53.196;19.638;2022-11-20T13:51:55;131.70;;;59.30;;
68379;SDS011;57711;53.196;19.638;2022-11-20T13:54:52;92.80;;;44.40;;
68379;SDS011;57711;53.196;19.638;2022-11-20T14:00:48;83.50;;;44.90;;
68379;SDS011;57711;53.196;19.638;2022-11-20T14:03:22;83.60;;;44.00;;
68379;SDS011;57711;53.196;19.638;2022-11-20T14:06:11;76.80;;;41.40;;
68379;SDS011;57711;53.196;19.638;2022-11-20T14:08:48;93.50;;;46.00;;
68379;SDS011;57711;53.196;19.638;2022-11-20T14:13:54;96.00;;;44.30;;
68379;SDS011;57711;53.196;19.638;2022-11-20T14:16:26;94.20;;;43.90;;
68379;SDS011;57711;53.196;19.638;2022-11-20T14:18:55;85.70;;;43.20;;
68379;SDS011;57711;53.196;19.638;2022-11-20T14:21:27;85.50;;;43.80;;
68379;SDS011;57711;53.196;19.638;2022-11-20T14:24:03;78.30;;;41.20;;
68379;SDS011;57711;53.196;19.638;2022-11-20T14:26:33;70.20;;;37.10;;
68379;SDS011;57711;53.196;19.638;2022-11-20T14:29:00;62.30;;;33.90;;
68379;SDS011;57711;53.196;19.638;2022-11-20T14:31:28;56.60;;;33.90;;
68379;SDS011;57711;53.196;19.638;2022-11-20T14:33:55;67.30;;;33.80;;
68379;SDS011;57711;53.196;19.638;2022-11-20T14:36:23;81.30;;;41.20;;
68379;SDS011;57711;53.196;19.638;2022-11-20T14:38:52;72.70;;;37.10;;
68379;SDS011;57711;53.196;19.638;2022-11-20T14:41:21;116.20;;;56.30;;
68379;SDS011;57711;53.196;19.638;2022-11-20T14:43:56;88.10;;;43.60;;
68379;SDS011;57711;53.196;19.638;2022-11-20T14:46:25;83.90;;;44.80;;
68379;SDS011;57711;53.196;19.638;2022-11-20T14:48:55;99.90;;;51.00;;
68379;SDS011;57711;53.196;19.638;2022-11-20T14:51:26;123.60;;;56.90;;
68379;SDS011;57711;53.196;19.638;2022-11-20T14:54:10;78.10;;;39.50;;
68379;SDS011;57711;53.196;19.638;2022-11-20T14:56:42;185.50;;;81.90;;
68379;SDS011;57711;53.196;19.638;2022-11-20T14:59:25;176.70;;;81.40;;
68379;SDS011;57711;53.196;19.638;2022-11-20T15:02:08;285.10;;;115.50;;
68379;SDS011;57711;53.196;19.638;2022-11-20T15:04:50;123.40;;;59.80;;
68379;SDS011;57711;53.196;19.638;2022-11-20T15:07:24;90.00;;;47.00;;
68379;SDS011;57711;53.196;19.638;2022-11-20T15:10:13;81.20;;;43.40;;
68379;SDS011;57711;53.196;19.638;2022-11-20T15:15:18;85.30;;;43.20;;
68379;SDS011;57711;53.196;19.638;2022-11-20T15:17:59;76.40;;;39.80;;
68379;SDS011;57711;53.196;19.638;2022-11-20T15:20:30;87.80;;;42.90;;
68379;SDS011;57711;53.196;19.638;2022-11-20T15:22:59;65.90;;;35.50;;
68379;SDS011;57711;53.196;19.638;2022-11-20T15:25:26;51.40;;;28.60;;
68379;SDS011;57711;53.196;19.638;2022-11-20T15:27:55;79.90;;;42.20;;
68379;SDS011;57711;53.196;19.638;2022-11-20T15:30:23;223.60;;;81.10;;
68379;SDS011;57711;53.196;19.638;2022-11-20T15:32:50;300.70;;;105.10;;
68379;SDS011;57711;53.196;19.638;2022-11-20T15:35:18;191.30;;;69.40;;
68379;SDS011;57711;53.196;19.638;2022-11-20T15:37:45;184.70;;;74.00;;
68379;SDS011;57711;53.196;19.638;2022-11-20T15:40:12;169.40;;;67.60;;
68379;SDS011;57711;53.196;19.638;2022-11-20T15:42:39;100.80;;;44.50;;
68379;SDS011;57711;53.196;19.638;2022-11-20T15:45:26;83.40;;;42.20;;
68379;SDS011;57711;53.196;19.638;2022-11-20T15:48:02;93.50;;;42.80;;
68379;SDS011;57711;53.196;19.638;2022-11-20T15:50:34;66.00;;;32.00;;
68379;SDS011;57711;53.196;19.638;2022-11-20T15:53:05;75.10;;;40.40;;
68379;SDS011;57711;53.196;19.638;2022-11-20T15:55:32;78.00;;;39.30;;
68379;SDS011;57711;53.196;19.638;2022-11-20T15:58:00;80.00;;;40.90;;
68379;SDS011;57711;53.196;19.638;2022-11-20T16:00:27;90.00;;;44.60;;
68379;SDS011;57711;53.196;19.638;2022-11-20T16:02:54;78.90;;;39.10;;
68379;SDS011;57711;53.196;19.638;2022-11-20T16:05:21;79.10;;;39.40;;
68379;SDS011;57711;53.196;19.638;2022-11-20T16:07:50;77.70;;;37.10;;